sensor_id;sensor_type;location;lat;lon;timestamp;temperature;humidity
10155;DHT22;5118;48.570;7.916;2022-09-12T00:01:20;14.10;99.90
10155;DHT22;5118;48.570;7.916;2022-09-12T00:03:51;14.00;99.90
10155;DHT22;5118;48.570;7.916;2022-09-12T00:06:22;14.00;99.90
10155;DHT22;5118;48.570;7.916;2022-09-12T00:08:52;14.00;99.90
10155;DHT22;5118;48.570;7.916;2022-09-12T00:11:21;14.00;99.90
10155;DHT22;5118;48.570;7.916;2022-09-12T00:13:50;14.00;99.90
10155;DHT22;5118;48.570;7.916;2022-09-12T00:16:21;13.90;99.90
10155;DHT22;5118;48.570;7.916;2022-09-12T00:18:51;13.90;99.90
10155;DHT22;5118;48.570;7.916;2022-09-12T00:21:20;13.90;99.90
10155;DHT22;5118;48.570;7.916;2022-09-12T00:23:49;13.90;99.90
10155;DHT22;5118;48.570;7.916;2022-09-12T00:26:19;13.80;99.90
10155;DHT22;5118;48.570;7.916;2022-09-12T00:28:48;13.80;99.90
10155;DHT22;5118;48.570;7.916;2022-09-12T00:31:18;13.80;99.90
10155;DHT22;5118;48.570;7.916;2022-09-12T00:33:51;13.80;99.90
10155;DHT22;5118;48.570;7.916;2022-09-12T00:36:22;13.80;99.90
10155;DHT22;5118;48.570;7.916;2022-09-12T00:38:51;13.70;99.90
10155;DHT22;5118;48.570;7.916;2022-09-12T00:41:23;13.70;99.90
10155;DHT22;5118;48.570;7.916;2022-09-12T00:43:54;13.70;99.90
10155;DHT22;5118;48.570;7.916;2022-09-12T00:46:32;13.60;99.90
10155;DHT22;5118;48.570;7.916;2022-09-12T00:49:07;13.60;99.90
10155;DHT22;5118;48.570;7.916;2022-09-12T00:51:37;13.60;99.90
10155;DHT22;5118;48.570;7.916;2022-09-12T00:54:09;13.50;99.90
10155;DHT22;5118;48.570;7.916;2022-09-12T00:56:41;13.50;99.90
10155;DHT22;5118;48.570;7.916;2022-09-12T00:59:14;13.50;99.90
10155;DHT22;5118;48.570;7.916;2022-09-12T01:01:44;13.50;99.90
10155;DHT22;5118;48.570;7.916;2022-09-12T01:04:19;13.50;99.90
10155;DHT22;5118;48.570;7.916;2022-09-12T01:06:49;13.50;99.90
10155;DHT22;5118;48.570;7.916;2022-09-12T01:09:21;13.50;99.90
10155;DHT22;5118;48.570;7.916;2022-09-12T01:11:51;13.50;99.90
10155;DHT22;5118;48.570;7.916;2022-09-12T01:14:19;13.50;99.90
10155;DHT22;5118;48.570;7.916;2022-09-12T01:16:49;13.50;99.90
10155;DHT22;5118;48.570;7.916;2022-09-12T01:19:38;13.50;99.90
10155;DHT22;5118;48.570;7.916;2022-09-12T01:22:24;13.40;99.90
10155;DHT22;5118;48.570;7.916;2022-09-12T01:25:07;13.40;99.90
10155;DHT22;5118;48.570;7.916;2022-09-12T01:27:47;13.40;99.90
10155;DHT22;5118;48.570;7.916;2022-09-12T01:30:38;13.40;99.90
10155;DHT22;5118;48.570;7.916;2022-09-12T01:33:28;13.40;99.90
10155;DHT22;5118;48.570;7.916;2022-09-12T01:36:12;13.40;99.90
10155;DHT22;5118;48.570;7.916;2022-09-12T01:38:47;13.40;99.90
10155;DHT22;5118;48.570;7.916;2022-09-12T01:41:23;13.40;99.90
10155;DHT22;5118;48.570;7.916;2022-09-12T01:44:02;13.40;99.90
10155;DHT22;5118;48.570;7.916;2022-09-12T01:46:40;13.40;99.90
10155;DHT22;5118;48.570;7.916;2022-09-12T01:49:14;13.30;99.90
10155;DHT22;5118;48.570;7.916;2022-09-12T01:51:53;13.30;99.90
10155;DHT22;5118;48.570;7.916;2022-09-12T01:54:28;13.30;99.90
10155;DHT22;5118;48.570;7.916;2022-09-12T01:57:01;13.20;99.90
10155;DHT22;5118;48.570;7.916;2022-09-12T01:59:34;13.20;99.90
10155;DHT22;5118;48.570;7.916;2022-09-12T02:02:10;13.10;99.90
10155;DHT22;5118;48.570;7.916;2022-09-12T02:04:43;13.00;99.90
10155;DHT22;5118;48.570;7.916;2022-09-12T02:07:18;13.00;99.90
10155;DHT22;5118;48.570;7.916;2022-09-12T02:09:51;13.00;99.90
10155;DHT22;5118;48.570;7.916;2022-09-12T02:12:24;12.90;99.90
10155;DHT22;5118;48.570;7.916;2022-09-12T02:14:57;12.90;99.90
10155;DHT22;5118;48.570;7.916;2022-09-12T02:17:29;12.90;99.90
10155;DHT22;5118;48.570;7.916;2022-09-12T02:20:03;12.80;99.90
10155;DHT22;5118;48.570;7.916;2022-09-12T02:22:35;12.80;99.90
10155;DHT22;5118;48.570;7.916;2022-09-12T02:25:06;12.80;99.90
10155;DHT22;5118;48.570;7.916;2022-09-12T02:27:40;12.80;99.90
10155;DHT22;5118;48.570;7.916;2022-09-12T02:30:10;12.70;99.90
10155;DHT22;5118;48.570;7.916;2022-09-12T02:32:48;12.70;99.90
10155;DHT22;5118;48.570;7.916;2022-09-12T02:35:25;12.70;99.90
10155;DHT22;5118;48.570;7.916;2022-09-12T02:37:59;12.70;99.90
10155;DHT22;5118;48.570;7.916;2022-09-12T02:40:29;12.70;99.90
10155;DHT22;5118;48.570;7.916;2022-09-12T02:42:58;12.70;99.90
10155;DHT22;5118;48.570;7.916;2022-09-12T02:45:27;12.70;99.90
10155;DHT22;5118;48.570;7.916;2022-09-12T02:47:59;12.60;99.90
10155;DHT22;5118;48.570;7.916;2022-09-12T02:50:29;12.60;99.90
10155;DHT22;5118;48.570;7.916;2022-09-12T02:52:59;12.60;99.90
10155;DHT22;5118;48.570;7.916;2022-09-12T02:55:32;12.60;99.90
10155;DHT22;5118;48.570;7.916;2022-09-12T02:58:02;12.60;99.90
10155;DHT22;5118;48.570;7.916;2022-09-12T03:00:36;12.60;99.90
10155;DHT22;5118;48.570;7.916;2022-09-12T03:03:22;12.60;99.90
10155;DHT22;5118;48.570;7.916;2022-09-12T03:05:56;12.60;99.90
10155;DHT22;5118;48.570;7.916;2022-09-12T03:11:56;12.60;99.90
10155;DHT22;5118;48.570;7.916;2022-09-12T03:14:54;12.60;99.90
10155;DHT22;5118;48.570;7.916;2022-09-12T03:17:36;12.70;99.90
10155;DHT22;5118;48.570;7.916;2022-09-12T03:20:12;12.70;99.90
10155;DHT22;5118;48.570;7.916;2022-09-12T03:22:51;12.70;99.90
10155;DHT22;5118;48.570;7.916;2022-09-12T03:25:23;12.70;99.90
10155;DHT22;5118;48.570;7.916;2022-09-12T03:27:57;12.70;99.90
10155;DHT22;5118;48.570;7.916;2022-09-12T03:30:27;12.70;99.90
10155;DHT22;5118;48.570;7.916;2022-09-12T03:32:55;12.60;99.90
10155;DHT22;5118;48.570;7.916;2022-09-12T03:35:24;12.60;99.90
10155;DHT22;5118;48.570;7.916;2022-09-12T03:37:53;12.50;99.90
10155;DHT22;5118;48.570;7.916;2022-09-12T03:40:21;12.50;99.90
10155;DHT22;5118;48.570;7.916;2022-09-12T03:42:49;12.50;99.90
10155;DHT22;5118;48.570;7.916;2022-09-12T03:45:17;12.50;99.90
10155;DHT22;5118;48.570;7.916;2022-09-12T03:47:46;12.50;99.90
10155;DHT22;5118;48.570;7.916;2022-09-12T03:50:14;12.50;99.90
10155;DHT22;5118;48.570;7.916;2022-09-12T03:52:43;12.50;99.90
10155;DHT22;5118;48.570;7.916;2022-09-12T03:55:12;12.60;99.90
10155;DHT22;5118;48.570;7.916;2022-09-12T03:57:40;12.60;99.90
10155;DHT22;5118;48.570;7.916;2022-09-12T04:00:09;12.60;99.90
10155;DHT22;5118;48.570;7.916;2022-09-12T04:02:42;12.60;99.90
10155;DHT22;5118;48.570;7.916;2022-09-12T04:05:10;12.60;99.90
10155;DHT22;5118;48.570;7.916;2022-09-12T04:07:39;12.70;99.90
10155;DHT22;5118;48.570;7.916;2022-09-12T04:10:08;12.70;99.90
10155;DHT22;5118;48.570;7.916;2022-09-12T04:12:37;12.70;99.90
10155;DHT22;5118;48.570;7.916;2022-09-12T04:15:06;12.70;99.90
10155;DHT22;5118;48.570;7.916;2022-09-12T04:17:35;12.70;99.90
10155;DHT22;5118;48.570;7.916;2022-09-12T04:20:04;12.70;99.90
10155;DHT22;5118;48.570;7.916;2022-09-12T04:22:33;12.60;99.90
10155;DHT22;5118;48.570;7.916;2022-09-12T04:25:01;12.60;99.90
10155;DHT22;5118;48.570;7.916;2022-09-12T04:27:32;12.50;99.90
10155;DHT22;5118;48.570;7.916;2022-09-12T04:30:01;12.50;99.90
10155;DHT22;5118;48.570;7.916;2022-09-12T04:32:29;12.40;99.90
10155;DHT22;5118;48.570;7.916;2022-09-12T04:34:57;12.40;99.90
10155;DHT22;5118;48.570;7.916;2022-09-12T04:37:26;12.30;99.90
10155;DHT22;5118;48.570;7.916;2022-09-12T04:39:54;12.30;99.90
10155;DHT22;5118;48.570;7.916;2022-09-12T04:42:24;12.30;99.90
10155;DHT22;5118;48.570;7.916;2022-09-12T04:44:53;12.30;99.90
10155;DHT22;5118;48.570;7.916;2022-09-12T04:47:21;12.30;99.90
10155;DHT22;5118;48.570;7.916;2022-09-12T04:49:50;12.20;99.90
10155;DHT22;5118;48.570;7.916;2022-09-12T04:52:18;12.20;99.90
10155;DHT22;5118;48.570;7.916;2022-09-12T04:54:46;12.20;99.90
10155;DHT22;5118;48.570;7.916;2022-09-12T04:57:15;12.20;99.90
10155;DHT22;5118;48.570;7.916;2022-09-12T04:59:43;12.10;99.90
10155;DHT22;5118;48.570;7.916;2022-09-12T05:02:12;12.10;99.90
10155;DHT22;5118;48.570;7.916;2022-09-12T05:04:41;12.10;99.90
10155;DHT22;5118;48.570;7.916;2022-09-12T05:07:12;12.10;99.90
10155;DHT22;5118;48.570;7.916;2022-09-12T05:09:40;12.10;99.90
10155;DHT22;5118;48.570;7.916;2022-09-12T05:12:09;12.10;99.90
10155;DHT22;5118;48.570;7.916;2022-09-12T05:14:38;12.10;99.90
10155;DHT22;5118;48.570;7.916;2022-09-12T05:17:06;12.10;99.90
10155;DHT22;5118;48.570;7.916;2022-09-12T05:19:36;12.10;99.90
10155;DHT22;5118;48.570;7.916;2022-09-12T05:22:06;12.20;99.90
10155;DHT22;5118;48.570;7.916;2022-09-12T05:24:35;12.20;99.90
10155;DHT22;5118;48.570;7.916;2022-09-12T05:27:05;12.20;99.90
10155;DHT22;5118;48.570;7.916;2022-09-12T05:29:33;12.20;99.90
10155;DHT22;5118;48.570;7.916;2022-09-12T05:32:01;12.20;99.90
10155;DHT22;5118;48.570;7.916;2022-09-12T05:34:30;12.30;99.90
10155;DHT22;5118;48.570;7.916;2022-09-12T05:37:00;12.30;99.90
10155;DHT22;5118;48.570;7.916;2022-09-12T05:39:28;12.30;99.90
10155;DHT22;5118;48.570;7.916;2022-09-12T05:41:56;12.30;99.90
10155;DHT22;5118;48.570;7.916;2022-09-12T05:44:25;12.30;99.90
10155;DHT22;5118;48.570;7.916;2022-09-12T05:46:56;12.40;99.90
10155;DHT22;5118;48.570;7.916;2022-09-12T05:49:24;12.40;99.90
10155;DHT22;5118;48.570;7.916;2022-09-12T05:51:53;12.40;99.90
10155;DHT22;5118;48.570;7.916;2022-09-12T05:54:22;12.50;99.90
10155;DHT22;5118;48.570;7.916;2022-09-12T05:56:56;12.60;99.90
10155;DHT22;5118;48.570;7.916;2022-09-12T05:59:24;12.70;99.90
10155;DHT22;5118;48.570;7.916;2022-09-12T06:01:54;12.80;99.90
10155;DHT22;5118;48.570;7.916;2022-09-12T06:04:22;12.80;99.90
10155;DHT22;5118;48.570;7.916;2022-09-12T06:06:51;12.90;99.90
10155;DHT22;5118;48.570;7.916;2022-09-12T06:09:20;13.00;99.90
10155;DHT22;5118;48.570;7.916;2022-09-12T06:11:50;13.10;99.90
10155;DHT22;5118;48.570;7.916;2022-09-12T06:14:18;13.20;99.90
10155;DHT22;5118;48.570;7.916;2022-09-12T06:16:48;13.30;99.90
10155;DHT22;5118;48.570;7.916;2022-09-12T06:19:18;13.40;99.90
10155;DHT22;5118;48.570;7.916;2022-09-12T06:21:47;13.40;99.90
10155;DHT22;5118;48.570;7.916;2022-09-12T06:24:18;13.60;99.90
10155;DHT22;5118;48.570;7.916;2022-09-12T06:26:47;13.60;99.90
10155;DHT22;5118;48.570;7.916;2022-09-12T06:29:17;13.70;99.90
10155;DHT22;5118;48.570;7.916;2022-09-12T06:31:45;13.90;99.90
10155;DHT22;5118;48.570;7.916;2022-09-12T06:34:15;14.00;99.90
10155;DHT22;5118;48.570;7.916;2022-09-12T06:36:45;14.10;99.90
10155;DHT22;5118;48.570;7.916;2022-09-12T06:39:15;14.20;99.90
10155;DHT22;5118;48.570;7.916;2022-09-12T06:41:44;14.30;99.90
10155;DHT22;5118;48.570;7.916;2022-09-12T06:44:13;14.40;99.90
10155;DHT22;5118;48.570;7.916;2022-09-12T06:46:44;14.50;99.90
10155;DHT22;5118;48.570;7.916;2022-09-12T06:49:12;14.60;99.90
10155;DHT22;5118;48.570;7.916;2022-09-12T06:51:41;14.70;99.90
10155;DHT22;5118;48.570;7.916;2022-09-12T06:54:12;14.80;99.90
10155;DHT22;5118;48.570;7.916;2022-09-12T06:56:41;14.90;99.90
10155;DHT22;5118;48.570;7.916;2022-09-12T06:59:09;15.00;99.90
10155;DHT22;5118;48.570;7.916;2022-09-12T07:01:37;15.00;99.90
10155;DHT22;5118;48.570;7.916;2022-09-12T07:04:08;15.10;99.90
10155;DHT22;5118;48.570;7.916;2022-09-12T07:06:38;15.20;99.90
10155;DHT22;5118;48.570;7.916;2022-09-12T07:09:09;15.30;99.90
10155;DHT22;5118;48.570;7.916;2022-09-12T07:11:39;15.30;99.90
10155;DHT22;5118;48.570;7.916;2022-09-12T07:14:10;15.30;99.90
10155;DHT22;5118;48.570;7.916;2022-09-12T07:16:38;15.40;99.90
10155;DHT22;5118;48.570;7.916;2022-09-12T07:19:10;15.50;99.90
10155;DHT22;5118;48.570;7.916;2022-09-12T07:21:38;15.60;99.90
10155;DHT22;5118;48.570;7.916;2022-09-12T07:24:07;15.70;99.90
10155;DHT22;5118;48.570;7.916;2022-09-12T07:26:37;15.70;99.90
10155;DHT22;5118;48.570;7.916;2022-09-12T07:29:13;15.80;99.90
10155;DHT22;5118;48.570;7.916;2022-09-12T07:32:02;15.80;99.90
10155;DHT22;5118;48.570;7.916;2022-09-12T07:34:33;15.90;99.90
10155;DHT22;5118;48.570;7.916;2022-09-12T07:37:02;16.00;99.90
10155;DHT22;5118;48.570;7.916;2022-09-12T07:39:30;16.10;99.90
10155;DHT22;5118;48.570;7.916;2022-09-12T07:41:59;16.20;99.90
10155;DHT22;5118;48.570;7.916;2022-09-12T07:44:27;16.30;99.90
10155;DHT22;5118;48.570;7.916;2022-09-12T07:46:56;16.40;99.90
10155;DHT22;5118;48.570;7.916;2022-09-12T07:49:24;16.50;99.90
10155;DHT22;5118;48.570;7.916;2022-09-12T07:51:54;16.70;99.90
10155;DHT22;5118;48.570;7.916;2022-09-12T07:54:22;16.80;99.90
10155;DHT22;5118;48.570;7.916;2022-09-12T07:56:50;16.90;99.90
10155;DHT22;5118;48.570;7.916;2022-09-12T07:59:19;17.00;99.90
10155;DHT22;5118;48.570;7.916;2022-09-12T08:02:10;17.10;99.90
10155;DHT22;5118;48.570;7.916;2022-09-12T08:04:44;17.30;99.90
10155;DHT22;5118;48.570;7.916;2022-09-12T08:07:14;17.40;99.90
10155;DHT22;5118;48.570;7.916;2022-09-12T08:09:44;17.50;99.90
10155;DHT22;5118;48.570;7.916;2022-09-12T08:12:12;17.50;99.90
10155;DHT22;5118;48.570;7.916;2022-09-12T08:14:43;17.60;99.90
10155;DHT22;5118;48.570;7.916;2022-09-12T08:17:11;17.70;99.90
10155;DHT22;5118;48.570;7.916;2022-09-12T08:19:40;17.80;99.90
10155;DHT22;5118;48.570;7.916;2022-09-12T08:22:11;17.80;99.90
10155;DHT22;5118;48.570;7.916;2022-09-12T08:24:41;18.00;99.90
10155;DHT22;5118;48.570;7.916;2022-09-12T08:27:09;18.10;99.90
10155;DHT22;5118;48.570;7.916;2022-09-12T08:29:38;18.20;99.90
10155;DHT22;5118;48.570;7.916;2022-09-12T08:32:07;18.20;99.90
10155;DHT22;5118;48.570;7.916;2022-09-12T08:34:36;18.40;99.90
10155;DHT22;5118;48.570;7.916;2022-09-12T08:37:05;18.50;99.90
10155;DHT22;5118;48.570;7.916;2022-09-12T08:39:33;18.60;99.90
10155;DHT22;5118;48.570;7.916;2022-09-12T08:42:04;18.70;99.90
10155;DHT22;5118;48.570;7.916;2022-09-12T08:47:33;19.00;99.90
10155;DHT22;5118;48.570;7.916;2022-09-12T08:50:12;19.10;99.90
10155;DHT22;5118;48.570;7.916;2022-09-12T08:52:48;19.20;99.90
10155;DHT22;5118;48.570;7.916;2022-09-12T08:55:28;19.40;99.90
10155;DHT22;5118;48.570;7.916;2022-09-12T08:58:01;19.50;99.90
10155;DHT22;5118;48.570;7.916;2022-09-12T09:00:38;19.60;99.90
10155;DHT22;5118;48.570;7.916;2022-09-12T09:03:47;19.70;99.90
10155;DHT22;5118;48.570;7.916;2022-09-12T09:06:26;19.90;99.90
10155;DHT22;5118;48.570;7.916;2022-09-12T09:09:04;20.00;99.90
10155;DHT22;5118;48.570;7.916;2022-09-12T09:11:42;20.00;99.90
10155;DHT22;5118;48.570;7.916;2022-09-12T09:17:23;20.10;99.90
10155;DHT22;5118;48.570;7.916;2022-09-12T09:19:57;20.20;99.90
10155;DHT22;5118;48.570;7.916;2022-09-12T09:22:41;20.20;99.90
10155;DHT22;5118;48.570;7.916;2022-09-12T09:25:16;20.30;99.90
10155;DHT22;5118;48.570;7.916;2022-09-12T09:27:53;20.30;99.90
10155;DHT22;5118;48.570;7.916;2022-09-12T09:30:24;20.40;99.90
10155;DHT22;5118;48.570;7.916;2022-09-12T09:32:56;20.40;99.90
10155;DHT22;5118;48.570;7.916;2022-09-12T09:35:31;20.50;99.90
10155;DHT22;5118;48.570;7.916;2022-09-12T09:38:10;20.60;99.90
10155;DHT22;5118;48.570;7.916;2022-09-12T09:40:47;20.60;99.90
10155;DHT22;5118;48.570;7.916;2022-09-12T09:43:21;20.70;99.90
10155;DHT22;5118;48.570;7.916;2022-09-12T09:45:52;20.80;99.90
10155;DHT22;5118;48.570;7.916;2022-09-12T09:48:24;20.90;99.90
10155;DHT22;5118;48.570;7.916;2022-09-12T09:50:58;21.00;99.90
10155;DHT22;5118;48.570;7.916;2022-09-12T09:53:34;21.20;99.90
10155;DHT22;5118;48.570;7.916;2022-09-12T09:56:08;21.30;99.90
10155;DHT22;5118;48.570;7.916;2022-09-12T09:58:38;21.40;99.90
10155;DHT22;5118;48.570;7.916;2022-09-12T10:01:13;21.60;99.90
10155;DHT22;5118;48.570;7.916;2022-09-12T10:03:54;21.70;99.90
10155;DHT22;5118;48.570;7.916;2022-09-12T10:06:28;21.80;99.90
10155;DHT22;5118;48.570;7.916;2022-09-12T10:09:16;22.00;99.90
10155;DHT22;5118;48.570;7.916;2022-09-12T10:11:48;22.10;99.90
10155;DHT22;5118;48.570;7.916;2022-09-12T10:14:36;22.30;99.90
10155;DHT22;5118;48.570;7.916;2022-09-12T10:17:24;22.40;99.90
10155;DHT22;5118;48.570;7.916;2022-09-12T10:19:59;22.60;99.90
10155;DHT22;5118;48.570;7.916;2022-09-12T10:22:48;22.60;99.90
10155;DHT22;5118;48.570;7.916;2022-09-12T10:25:18;22.60;99.90
10155;DHT22;5118;48.570;7.916;2022-09-12T10:27:52;22.70;99.90
10155;DHT22;5118;48.570;7.916;2022-09-12T10:30:22;22.80;99.90
10155;DHT22;5118;48.570;7.916;2022-09-12T10:32:58;22.90;99.90
10155;DHT22;5118;48.570;7.916;2022-09-12T10:35:46;23.00;99.90
10155;DHT22;5118;48.570;7.916;2022-09-12T10:38:21;23.10;99.90
10155;DHT22;5118;48.570;7.916;2022-09-12T10:40:56;23.20;99.90
10155;DHT22;5118;48.570;7.916;2022-09-12T10:43:27;23.30;99.90
10155;DHT22;5118;48.570;7.916;2022-09-12T10:45:58;23.60;99.90
10155;DHT22;5118;48.570;7.916;2022-09-12T10:48:29;24.10;99.90
10155;DHT22;5118;48.570;7.916;2022-09-12T10:51:00;24.80;99.90
10155;DHT22;5118;48.570;7.916;2022-09-12T10:53:31;25.60;99.90
10155;DHT22;5118;48.570;7.916;2022-09-12T10:56:09;26.50;99.90
10155;DHT22;5118;48.570;7.916;2022-09-12T10:59:01;27.40;99.90
10155;DHT22;5118;48.570;7.916;2022-09-12T11:01:39;28.30;99.90
10155;DHT22;5118;48.570;7.916;2022-09-12T11:04:22;28.90;99.90
10155;DHT22;5118;48.570;7.916;2022-09-12T11:07:01;29.40;99.90
10155;DHT22;5118;48.570;7.916;2022-09-12T11:09:36;29.70;99.90
10155;DHT22;5118;48.570;7.916;2022-09-12T11:12:17;29.90;99.70
10155;DHT22;5118;48.570;7.916;2022-09-12T11:14:59;30.40;98.70
10155;DHT22;5118;48.570;7.916;2022-09-12T11:17:40;31.20;98.10
10155;DHT22;5118;48.570;7.916;2022-09-12T11:20:28;32.30;94.20
10155;DHT22;5118;48.570;7.916;2022-09-12T11:26:10;33.60;90.50
10155;DHT22;5118;48.570;7.916;2022-09-12T11:28:48;34.20;89.50
10155;DHT22;5118;48.570;7.916;2022-09-12T11:31:36;34.80;84.20
10155;DHT22;5118;48.570;7.916;2022-09-12T11:34:08;35.40;74.80
10155;DHT22;5118;48.570;7.916;2022-09-12T11:36:42;35.90;76.00
10155;DHT22;5118;48.570;7.916;2022-09-12T11:39:15;36.40;74.60
10155;DHT22;5118;48.570;7.916;2022-09-12T11:41:49;36.90;71.30
10155;DHT22;5118;48.570;7.916;2022-09-12T11:44:23;37.40;66.70
10155;DHT22;5118;48.570;7.916;2022-09-12T11:46:54;37.70;60.30
10155;DHT22;5118;48.570;7.916;2022-09-12T11:49:27;37.90;56.60
10155;DHT22;5118;48.570;7.916;2022-09-12T11:52:05;38.10;51.80
10155;DHT22;5118;48.570;7.916;2022-09-12T11:54:38;38.50;55.00
10155;DHT22;5118;48.570;7.916;2022-09-12T11:57:13;38.90;53.50
10155;DHT22;5118;48.570;7.916;2022-09-12T11:59:47;39.30;49.20
10155;DHT22;5118;48.570;7.916;2022-09-12T12:02:23;39.60;45.60
10155;DHT22;5118;48.570;7.916;2022-09-12T12:05:03;39.90;45.30
10155;DHT22;5118;48.570;7.916;2022-09-12T12:07:38;40.20;33.00
10155;DHT22;5118;48.570;7.916;2022-09-12T12:10:28;40.40;38.40
10155;DHT22;5118;48.570;7.916;2022-09-12T12:13:02;40.60;36.60
10155;DHT22;5118;48.570;7.916;2022-09-12T12:15:33;40.80;36.40
10155;DHT22;5118;48.570;7.916;2022-09-12T12:18:05;41.10;34.50
10155;DHT22;5118;48.570;7.916;2022-09-12T12:20:35;41.30;33.70
10155;DHT22;5118;48.570;7.916;2022-09-12T12:23:03;41.30;31.20
10155;DHT22;5118;48.570;7.916;2022-09-12T12:25:40;41.00;30.60
10155;DHT22;5118;48.570;7.916;2022-09-12T12:31:20;40.60;26.70
10155;DHT22;5118;48.570;7.916;2022-09-12T12:33:59;39.50;28.10
10155;DHT22;5118;48.570;7.916;2022-09-12T12:36:31;38.90;29.10
10155;DHT22;5118;48.570;7.916;2022-09-12T12:49:08;41.30;30.00
10155;DHT22;5118;48.570;7.916;2022-09-12T12:51:54;42.10;27.40
10155;DHT22;5118;48.570;7.916;2022-09-12T12:57:30;42.90;27.40
10155;DHT22;5118;48.570;7.916;2022-09-12T13:00:03;43.40;27.20
10155;DHT22;5118;48.570;7.916;2022-09-12T13:02:35;43.80;27.20
10155;DHT22;5118;48.570;7.916;2022-09-12T13:05:16;44.00;25.30
10155;DHT22;5118;48.570;7.916;2022-09-12T13:07:53;44.10;25.40
10155;DHT22;5118;48.570;7.916;2022-09-12T13:10:23;44.20;24.80
10155;DHT22;5118;48.570;7.916;2022-09-12T13:12:56;44.50;25.90
10155;DHT22;5118;48.570;7.916;2022-09-12T13:15:47;44.80;26.60
10155;DHT22;5118;48.570;7.916;2022-09-12T13:18:21;45.10;25.20
10155;DHT22;5118;48.570;7.916;2022-09-12T13:20:55;45.20;25.30
10155;DHT22;5118;48.570;7.916;2022-09-12T13:23:29;45.30;25.60
10155;DHT22;5118;48.570;7.916;2022-09-12T13:25:59;45.50;24.90
10155;DHT22;5118;48.570;7.916;2022-09-12T13:28:29;45.70;23.70
10155;DHT22;5118;48.570;7.916;2022-09-12T13:31:00;45.90;24.20
10155;DHT22;5118;48.570;7.916;2022-09-12T13:33:34;46.10;24.80
10155;DHT22;5118;48.570;7.916;2022-09-12T13:39:14;46.50;23.40
10155;DHT22;5118;48.570;7.916;2022-09-12T13:44:53;47.10;20.90
10155;DHT22;5118;48.570;7.916;2022-09-12T13:47:27;47.30;21.80
10155;DHT22;5118;48.570;7.916;2022-09-12T13:49:58;47.40;21.00
10155;DHT22;5118;48.570;7.916;2022-09-12T13:52:30;47.40;21.40
10155;DHT22;5118;48.570;7.916;2022-09-12T13:55:05;47.50;21.50
10155;DHT22;5118;48.570;7.916;2022-09-12T13:57:36;47.70;21.60
10155;DHT22;5118;48.570;7.916;2022-09-12T14:00:18;48.00;22.00
10155;DHT22;5118;48.570;7.916;2022-09-12T14:02:49;48.10;21.60
10155;DHT22;5118;48.570;7.916;2022-09-12T14:05:38;48.00;20.10
10155;DHT22;5118;48.570;7.916;2022-09-12T14:08:07;47.80;20.30
10155;DHT22;5118;48.570;7.916;2022-09-12T14:10:38;47.70;20.40
10155;DHT22;5118;48.570;7.916;2022-09-12T14:13:10;47.60;19.60
10155;DHT22;5118;48.570;7.916;2022-09-12T14:15:43;47.60;20.30
10155;DHT22;5118;48.570;7.916;2022-09-12T14:18:22;47.70;19.80
10155;DHT22;5118;48.570;7.916;2022-09-12T14:20:51;47.70;19.90
10155;DHT22;5118;48.570;7.916;2022-09-12T14:23:27;47.90;19.80
10155;DHT22;5118;48.570;7.916;2022-09-12T14:26:00;48.20;19.30
10155;DHT22;5118;48.570;7.916;2022-09-12T14:28:29;48.40;18.80
10155;DHT22;5118;48.570;7.916;2022-09-12T14:31:03;48.50;18.60
10155;DHT22;5118;48.570;7.916;2022-09-12T14:33:45;48.60;18.80
10155;DHT22;5118;48.570;7.916;2022-09-12T14:36:21;48.60;18.20
10155;DHT22;5118;48.570;7.916;2022-09-12T14:38:52;48.60;17.50
10155;DHT22;5118;48.570;7.916;2022-09-12T14:41:25;48.60;18.10
10155;DHT22;5118;48.570;7.916;2022-09-12T14:43:57;48.60;18.60
10155;DHT22;5118;48.570;7.916;2022-09-12T14:46:30;48.60;17.50
10155;DHT22;5118;48.570;7.916;2022-09-12T14:49:06;48.50;17.90
10155;DHT22;5118;48.570;7.916;2022-09-12T14:51:37;48.30;18.10
10155;DHT22;5118;48.570;7.916;2022-09-12T14:54:05;47.60;17.20
10155;DHT22;5118;48.570;7.916;2022-09-12T14:56:55;46.90;16.90
10155;DHT22;5118;48.570;7.916;2022-09-12T14:59:28;46.40;18.40
10155;DHT22;5118;48.570;7.916;2022-09-12T15:02:24;46.10;17.50
10155;DHT22;5118;48.570;7.916;2022-09-12T15:04:53;45.90;17.40
10155;DHT22;5118;48.570;7.916;2022-09-12T15:07:29;45.80;17.80
10155;DHT22;5118;48.570;7.916;2022-09-12T15:10:00;45.80;18.80
10155;DHT22;5118;48.570;7.916;2022-09-12T15:12:30;45.70;19.80
10155;DHT22;5118;48.570;7.916;2022-09-12T15:15:03;45.50;18.90
10155;DHT22;5118;48.570;7.916;2022-09-12T15:17:34;45.40;19.50
10155;DHT22;5118;48.570;7.916;2022-09-12T15:20:02;45.40;19.90
10155;DHT22;5118;48.570;7.916;2022-09-12T15:22:31;45.30;19.50
10155;DHT22;5118;48.570;7.916;2022-09-12T15:25:00;45.30;19.40
10155;DHT22;5118;48.570;7.916;2022-09-12T15:27:30;45.20;19.10
10155;DHT22;5118;48.570;7.916;2022-09-12T15:29:58;44.90;20.30
10155;DHT22;5118;48.570;7.916;2022-09-12T15:32:28;44.80;20.80
10155;DHT22;5118;48.570;7.916;2022-09-12T15:34:57;44.90;20.50
10155;DHT22;5118;48.570;7.916;2022-09-12T15:37:25;45.00;20.70
10155;DHT22;5118;48.570;7.916;2022-09-12T15:39:53;45.20;20.50
10155;DHT22;5118;48.570;7.916;2022-09-12T15:42:27;45.60;19.60
10155;DHT22;5118;48.570;7.916;2022-09-12T15:44:57;45.80;20.00
10155;DHT22;5118;48.570;7.916;2022-09-12T15:47:29;45.60;19.10
10155;DHT22;5118;48.570;7.916;2022-09-12T15:49:57;45.20;19.30
10155;DHT22;5118;48.570;7.916;2022-09-12T15:52:25;44.60;19.30
10155;DHT22;5118;48.570;7.916;2022-09-12T15:54:53;44.10;19.60
10155;DHT22;5118;48.570;7.916;2022-09-12T15:57:21;43.50;19.60
10155;DHT22;5118;48.570;7.916;2022-09-12T15:59:49;43.20;20.00
10155;DHT22;5118;48.570;7.916;2022-09-12T16:02:19;43.10;21.00
10155;DHT22;5118;48.570;7.916;2022-09-12T16:04:48;42.90;20.80
10155;DHT22;5118;48.570;7.916;2022-09-12T16:07:19;42.90;20.40
10155;DHT22;5118;48.570;7.916;2022-09-12T16:09:47;42.80;20.30
10155;DHT22;5118;48.570;7.916;2022-09-12T16:12:16;42.70;20.80
10155;DHT22;5118;48.570;7.916;2022-09-12T16:14:45;42.40;20.40
10155;DHT22;5118;48.570;7.916;2022-09-12T16:17:13;42.10;20.60
10155;DHT22;5118;48.570;7.916;2022-09-12T16:19:43;41.90;21.00
10155;DHT22;5118;48.570;7.916;2022-09-12T16:22:11;41.60;21.20
10155;DHT22;5118;48.570;7.916;2022-09-12T16:24:39;41.30;21.50
10155;DHT22;5118;48.570;7.916;2022-09-12T16:27:07;41.00;21.60
10155;DHT22;5118;48.570;7.916;2022-09-12T16:29:36;40.70;22.20
10155;DHT22;5118;48.570;7.916;2022-09-12T16:32:04;40.50;22.50
10155;DHT22;5118;48.570;7.916;2022-09-12T16:34:33;40.50;22.70
10155;DHT22;5118;48.570;7.916;2022-09-12T16:37:03;40.50;22.80
10155;DHT22;5118;48.570;7.916;2022-09-12T16:39:31;40.70;23.50
10155;DHT22;5118;48.570;7.916;2022-09-12T16:42:00;41.00;23.20
10155;DHT22;5118;48.570;7.916;2022-09-12T16:44:28;41.20;23.50
10155;DHT22;5118;48.570;7.916;2022-09-12T16:46:56;41.30;22.80
10155;DHT22;5118;48.570;7.916;2022-09-12T16:49:24;41.40;22.90
10155;DHT22;5118;48.570;7.916;2022-09-12T16:51:53;41.40;22.40
10155;DHT22;5118;48.570;7.916;2022-09-12T16:54:22;41.20;22.50